Rumney, New Hampshire
Current Conditions -  °F | °C
As of 12:55 PM on Thursday 30 Oct 2014 (Local Time) from K1P1 Reporting Station
Light Rain Light Rain  
Wind Chill: 51°   Ceiling: 3600
Heat Index: 51°   Visibility: 10mi
Dew Point: 44°   Wind: 8mph
Humidity: 77%   Direction: 280°W
Pressure: 29.92"   Gusts: NA
Location:  43.81°N, 71.81°W
Report Text: K1P1 301655Z AUTO 28007KT 10SM -RA SCT029 BKN036 BKN043 10/07 A2992 RMK AO2 T01030065
Loading
Personal Weather Stations






























Interactive Weather Map
Tropical Storm Tracking
New forecast layout! Learn more

10-Day Weather Forecast

Advertisements
Track Severe Weather on mobile